Latest Weather Observations for Leinster

IDW60801

Issued at 5:32 am WST Tuesday 23 December 2014 (issued every 30 minutes, with the page automatically refreshed every 10 minutes)

About weather observations | Map of weather stations | Latest weather observations for WA | Other Formats
Station Details ID: 012314 Name: LEINSTER AERO Lat: -27.84 Lon: 120.70 Height: 497.0 m
Data from the previous 72 hours. | See also: Recent months at Leinster
Date/Time
WST
Temp
°C
App
Temp
°C
Dew
Point
Rel
Hum
%
Delta-T
°C
Wind Press
QNH
hPa
Press
MSL
hPa
Rain
since 9 am
mm
Dir
 
Spd
km/h
Gust
km/h
Spd
kts
Gust
kts
23/05:30am 20.2 17.4 11.4 57 5.0 E 17 24 9 13 1016.2 1012.7 0.0
23/05:00am 20.1 17.7 11.3 57 5.0 E 15 20 8 11 1015.8 1012.3 0.0
23/04:30am 20.5 17.1 11.2 55 5.2 E 20 32 11 17 1015.5 1012.0 0.0
23/04:00am 20.8 17.0 11.2 54 5.4 E 22 35 12 19 1015.2 1011.7 0.0
23/03:30am 21.1 17.7 11.2 53 5.6 ESE 20 32 11 17 1015.1 1011.6 0.0
23/03:00am 21.6 18.1 11.0 51 6.0 ESE 20 30 11 16 1014.8 1011.3 0.0
23/02:30am 22.0 18.1 10.8 49 6.3 E 22 37 12 20 1014.5 1011.0 0.0
23/02:00am 22.5 18.1 10.3 46 6.8 ESE 24 39 13 21 1014.0 1010.4 0.0
23/01:30am 23.2 18.3 9.9 43 7.4 ESE 26 41 14 22 1013.6 1010.1 0.0
23/01:00am 23.8 19.1 9.4 40 8.0 ESE 24 39 13 21 1013.3 1009.8 0.0
23/12:30am 24.5 19.4 9.3 38 8.5 ESE 26 39 14 21 1013.4 1009.9 0.0
23/12:00am 24.7 20.7 9.0 37 8.7 ESE 20 28 11 15 1013.3 1009.8 0.0
 
Date/Time
WST
Temp
°C
App
Temp
°C
Dew
Point
Rel
Hum
%
Delta-T
°C
Wind Press
QNH
hPa
Press
MSL
hPa
Rain
since 9 am
mm
Dir
 
Spd
km/h
Gust
km/h
Spd
kts
Gust
kts
22/11:30pm 25.0 21.4 8.5 35 9.1 ESE 17 24 9 13 1013.2 1009.7 0.0
22/11:00pm 25.7 22.1 8.2 33 9.6 ESE 17 24 9 13 1013.0 1009.5 0.0
22/10:30pm 25.8 22.0 7.4 31 10.0 SE 17 24 9 13 1013.1 1009.6 0.0
22/10:00pm 26.3 23.5 6.9 29 10.5 E 11 17 6 9 1012.9 1009.4 0.0
22/09:30pm 26.8 24.0 6.8 28 10.8 E 11 15 6 8 1012.8 1009.3 0.0
22/09:00pm 27.1 24.6 6.5 27 11.1 E 9 13 5 7 1012.6 1009.1 0.0
22/08:30pm 27.6 25.3 5.8 25 11.6 ESE 7 9 4 5 1012.3 1008.8 0.0
22/08:00pm 28.8 25.7 5.6 23 12.4 SE 11 17 6 9 1012.1 1008.5 0.0
22/07:30pm 29.4 25.5 5.5 22 12.8 SE 15 19 8 10 1011.6 1008.1 0.0
22/07:00pm 30.0 25.2 4.6 20 13.4 SSE 19 22 10 12 1011.4 1007.9 0.0
22/06:30pm 30.9 26.6 5.3 20 13.8 SE 17 24 9 13 1011.1 1007.6 0.0
22/06:00pm 31.1 27.2 5.5 20 13.8 S 15 20 8 11 1010.9 1007.4 0.0
22/05:30pm 31.7 28.1 6.7 21 13.8 ESE 15 26 8 14 1010.9 1007.4 0.0
22/05:00pm 31.4 26.8 5.8 20 13.9 SE 19 30 10 16 1010.8 1007.3 0.0
22/04:30pm 31.6 28.6 5.9 20 14.0 E 11 20 6 11 1010.8 1007.3 0.0
22/04:00pm 31.6 28.7 4.4 18 14.5 S 9 19 5 10 1010.9 1007.4 0.0
22/03:30pm 31.4 28.2 5.0 19 14.2 N 11 28 6 15 1011.2 1007.7 0.0
22/03:00pm 31.0 27.8 6.8 22 13.4 S 13 24 7 13 1011.5 1008.0 0.0
22/02:30pm 32.0 29.4 7.6 22 13.7 SSE 11 20 6 11 1011.9 1008.3 0.0
22/02:00pm 31.7 28.6 7.4 22 13.6 NE 13 28 7 15 1012.3 1008.8 0.0
22/01:30pm 30.5 28.5 8.8 26 12.3 ENE 9 20 5 11 1012.7 1009.2 0.0
22/01:00pm 29.2 26.3 8.3 27 11.7 ESE 13 22 7 12 1013.0 1009.5 0.0
22/12:30pm 29.1 26.0 8.7 28 11.5 E 15 26 8 14 1013.4 1009.9 0.0
22/12:00pm 27.5 24.0 8.9 31 10.4 E 17 28 9 15 1013.7 1010.2 0.0
22/11:30am 27.2 24.0 10.0 34 9.8 ESE 17 28 9 15 1014.2 1010.7 0.0
22/11:00am 27.4 24.1 9.7 33 10.0 ESE 17 28 9 15 1014.7 1011.2 0.0
22/10:30am 27.2 24.1 10.4 35 9.6 ESE 17 28 9 15 1014.9 1011.4 0.0
22/10:00am 25.9 22.3 9.7 36 9.1 ESE 19 32 10 17 1015.1 1011.6 0.0
22/09:30am 25.1 21.9 9.8 38 8.6 ESE 17 24 9 13 1015.2 1011.7 0.0
22/09:00am 23.9 20.2 10.2 42 7.7 E 20 30 11 16 1015.2 1011.7 0.0
22/08:30am 22.9 19.2 10.0 44 7.2 E 20 28 11 15 1015.4 1011.9 0.0
22/08:00am 21.9 18.1 9.8 46 6.7 ESE 20 32 11 17 1015.4 1011.9 0.0
22/07:30am 21.4 17.7 9.6 47 6.5 E 19 26 10 14 1015.4 1011.9 0.0
22/07:00am 20.1 16.8 9.4 50 5.8 ESE 17 28 9 15 1015.3 1011.8 0.0
22/06:30am 19.6 15.4 9.8 53 5.4 ESE 22 28 12 15 1015.2 1011.7 0.0
22/06:00am 18.9 16.4 11.0 60 4.4 E 15 22 8 12 1015.1 1011.6 0.0
22/05:30am 18.1 16.0 11.0 63 3.9 E 13 20 7 11 1014.8 1011.3 0.0
22/05:00am 18.0 16.5 11.8 67 3.5 E 11 17 6 9 1014.3 1010.8 0.0
22/04:30am 18.3 17.4 13.6 74 2.7 ESE 11 19 6 10 1013.7 1010.2 0.0
22/04:00am 18.5 17.6 13.8 74 2.7 ESE 11 17 6 9 1013.3 1009.8 0.0
22/03:30am 18.8 18.1 14.3 75 2.7 ESE 11 17 6 9 1013.1 1009.6 0.0
22/03:00am 19.0 18.2 14.1 73 2.9 E 11 17 6 9 1013.0 1009.5 0.0
22/02:30am 19.4 18.6 14.0 71 3.2 E 11 17 6 9 1013.0 1009.5 0.0
22/02:00am 19.9 18.4 14.3 70 3.3 ESE 15 20 8 11 1013.1 1009.6 0.0
22/01:30am 20.2 17.9 14.1 68 3.6 ESE 19 28 10 15 1013.1 1009.6 0.0
22/01:00am 20.7 18.3 13.9 65 4.0 ESE 19 26 10 14 1013.2 1009.7 0.0
22/12:30am 21.1 17.7 13.8 63 4.3 ESE 24 35 13 19 1013.4 1009.9 0.0
22/12:00am 21.4 19.2 14.8 66 4.0 ESE 20 26 11 14 1013.5 1010.0 0.0
 
Date/Time
WST
Temp
°C
App
Temp
°C
Dew
Point
Rel
Hum
%
Delta-T
°C
Wind Press
QNH
hPa
Press
MSL
hPa
Rain
since 9 am
mm
Dir
 
Spd
km/h
Gust
km/h
Spd
kts
Gust
kts
21/11:30pm 22.2 18.6 14.3 61 4.7 SE 26 35 14 19 1013.6 1010.1 0.0
21/11:00pm 22.6 19.7 13.9 58 5.2 SE 22 30 12 16 1013.6 1010.1 0.0
21/10:30pm 23.1 19.3 13.6 55 5.6 SSE 26 35 14 19 1013.6 1010.1 0.0
21/10:00pm 23.5 20.0 13.4 53 6.0 SSE 24 37 13 20 1013.5 1010.0 0.0
21/09:30pm 24.0 20.1 13.2 50 6.4 SSE 26 32 14 17 1013.1 1009.6 0.0
21/09:00pm 24.7 20.4 13.3 49 6.8 SSE 28 41 15 22 1012.6 1009.1 0.0
21/08:30pm 25.0 21.4 13.2 48 7.0 SSE 24 32 13 17 1012.2 1008.6 0.0
21/08:00pm 25.4 20.8 13.6 48 7.1 SSE 30 43 16 23 1011.7 1008.2 0.0
21/07:30pm 26.1 21.1 13.9 47 7.4 SSE 33 46 18 25 1011.1 1007.6 0.0
21/07:00pm 27.5 23.3 13.4 41 8.5 SSE 28 39 15 21 1010.5 1007.0 0.0
21/06:30pm 28.2 23.9 13.3 40 9.0 SSE 28 39 15 21 1010.1 1006.5 0.0
21/06:00pm 28.8 24.6 13.5 39 9.3 S 28 37 15 20 1009.5 1006.0 0.0
21/05:30pm 30.2 26.2 13.0 34 10.4 S 26 39 14 21 1009.1 1005.6 0.0
21/05:00pm 30.9 27.1 12.3 32 11.2 S 24 33 13 18 1009.0 1005.5 0.0
21/04:30pm 31.0 27.0 11.9 31 11.4 SSW 24 35 13 19 1009.1 1005.6 0.0
21/04:00pm 31.0 28.0 12.4 32 11.2 S 20 30 11 16 1009.1 1005.6 0.0
21/03:30pm 30.9 27.4 12.3 32 11.2 S 22 35 12 19 1009.5 1006.0 0.0
21/03:00pm 30.7 28.0 13.5 35 10.5 S 20 33 11 18 1009.8 1006.2 0.0
21/02:30pm 29.5 26.7 13.3 37 9.8 S 20 32 11 17 1010.2 1006.6 0.0
21/02:01pm 30.0 27.8 14.9 39 9.4 S 20 46 11 25 1010.3 1006.7 0.0
21/02:00pm 29.4 26.7 13.6 38 9.6 S 20 30 11 16 1010.4 1006.8 0.0
21/01:30pm 30.1 28.1 15.4 41 9.2 S 20 33 11 18 1010.5 1007.0 0.0
21/01:00pm 28.3 26.2 16.2 47 7.6 S 22 33 12 18 1010.7 1007.2 0.0
21/12:30pm 27.7 25.1 16.0 49 7.4 S 24 35 13 19 1010.8 1007.3 0.0
21/12:00pm 29.0 27.8 17.5 49 7.4 S 20 35 11 19 1010.7 1007.2 0.0
21/11:30am 27.3 25.0 16.6 52 6.8 SSW 24 35 13 19 1010.7 1007.2 0.0
21/11:00am 26.4 24.7 17.2 57 5.9 SSW 22 33 12 18 1010.9 1007.4 0.0
21/10:30am 25.9 23.5 17.3 59 5.5 S 26 35 14 19 1011.1 1007.6 0.0
21/10:00am 24.9 23.1 17.9 65 4.5 S 24 33 13 18 1011.0 1007.5 0.0
21/09:30am 24.0 22.6 18.0 69 3.8 S 22 30 12 16 1011.0 1007.5 0.0
21/09:00am 24.4 23.5 19.0 72 3.5 S 22 32 12 17 1010.8 1007.3 7.8
21/08:30am 23.2 22.1 18.7 76 2.9 S 22 30 12 16 1010.5 1007.0 7.8
21/08:00am 22.9 22.2 19.5 81 2.2 S 22 30 12 16 1010.5 1007.0 7.8
21/07:30am 21.9 20.7 18.5 81 2.2 S 22 30 12 16 1010.3 1006.7 7.8
21/07:16am 21.5 20.3 18.3 82 2.0 S 22 30 12 16 1010.3 1006.7 7.8
21/07:00am 21.5 20.0 18.5 83 1.9 S 24 33 13 18 1010.2 1006.6 7.8
21/06:31am 21.5 20.4 18.7 84 1.8 S 22 32 12 17 1009.8 1006.2 7.8
21/06:30am 21.4 20.0 18.8 85 1.7 S 24 32 13 17 1009.8 1006.2 7.8
21/06:00am 21.3 20.6 18.7 85 1.7 S 20 30 11 16 1009.4 1005.9 7.8
21/05:30am 20.8 20.3 18.7 88 1.3 S 19 22 10 12 1009.1 1005.6 7.8
21/05:00am 20.7 20.5 18.6 88 1.3 S 17 20 9 11 1008.8 1005.3 7.8
21/04:30am 21.0 20.8 18.6 86 1.5 S 17 22 9 12 1008.3 1004.7 7.8
21/04:00am 21.4 20.8 18.4 83 1.9 S 19 24 10 13 1008.2 1004.6 7.8
21/03:30am 21.8 21.6 18.6 82 2.1 SSE 17 22 9 12 1008.0 1004.4 7.8
21/03:00am 22.2 22.8 18.6 80 2.3 SSE 13 19 7 10 1007.8 1004.2 7.8
21/02:30am 22.9 23.3 18.2 75 3.0 SSE 13 19 7 10 1007.6 1004.0 7.8
21/02:00am 23.4 23.3 17.8 71 3.6 SSE 15 20 8 11 1007.4 1003.9 7.8
21/01:30am 24.0 22.9 17.3 66 4.2 S 19 26 10 14 1007.6 1004.0 7.8
21/01:00am 25.3 22.6 11.8 43 7.9 SSW 17 20 9 11 1007.3 1003.8 7.8
21/12:30am 24.8 24.5 14.3 52 6.4 WSW 9 11 5 6 1007.3 1003.8 7.8
21/12:00am 25.6 25.6 15.3 53 6.4 WNW 9 11 5 6 1007.7 1004.1 7.8
 
Date/Time
WST
Temp
°C
App
Temp
°C
Dew
Point
Rel
Hum
%
Delta-T
°C
Wind Press
QNH
hPa
Press
MSL
hPa
Rain
since 9 am
mm
Dir
 
Spd
km/h
Gust
km/h
Spd
kts
Gust
kts
20/11:30pm 26.7 26.2 14.8 48 7.3 W 11 15 6 8 1007.7 1004.1 7.8
20/11:00pm 26.6 27.1 16.5 54 6.4 WNW 9 15 5 8 1007.9 1004.3 7.8
20/10:30pm 25.6 27.2 19.9 70 3.8 NNW 11 13 6 7 1008.1 1004.5 7.8
20/10:00pm 25.9 28.1 20.5 72 3.6 NNE 9 11 5 6 1008.1 1004.5 7.8
20/09:30pm 25.9 28.6 20.7 73 3.5 N 7 11 4 6 1007.8 1004.2 7.8
20/09:00pm 25.9 30.4 21.6 77 2.9 CALM 0 0 0 0 1007.4 1003.9 7.8
20/08:30pm 27.1 30.0 19.9 64 4.8 SSW 4 11 2 6 1007.0 1003.5 7.8
20/08:00pm 27.0 29.4 20.8 69 4.2 SW 9 15 5 8 1006.9 1003.4 7.8
20/07:30pm 27.3 29.2 20.6 67 4.5 NE 11 17 6 9 1006.3 1002.7 7.8
20/07:00pm 27.9 30.4 21.7 69 4.2 NE 11 17 6 9 1005.7 1002.1 7.8
20/06:30pm 28.6 30.4 21.1 64 5.1 ENE 13 17 7 9 1005.0 1001.5 7.8
20/06:00pm 28.7 31.0 22.0 67 4.6 E 13 20 7 11 1004.7 1001.1 7.8
20/05:30pm 28.3 31.0 22.1 69 4.3 ESE 11 17 6 9 1004.3 1000.7 7.8
20/05:00pm 27.3 30.3 22.7 76 3.2 ENE 11 17 6 9 1004.2 1000.6 7.8
20/04:43pm 26.1 30.3 24.1 89 1.4 ESE 9 17 5 9 1004.4 1000.8 7.8
20/04:30pm 25.4 29.7 23.6 90 1.3 ENE 7 15 4 8 1004.6 1001.0 7.8
20/04:22pm 25.4 29.0 23.1 87 1.6 ESE 9 20 5 11 1005.8 1002.2 6.2
20/04:01pm 26.7 27.2 21.9 75 3.3 SSE 22 41 12 22 1006.2 1002.6 3.0
20/04:00pm 26.7 27.4 21.5 73 3.5 S 20 41 11 22 1006.1 1002.5 3.0
20/03:44pm 27.9 28.7 19.9 61 5.3 N 15 28 8 15 1004.9 1001.4 3.0
20/03:30pm 28.8 28.8 21.0 62 5.3 NNE 22 32 12 17 1004.9 1001.4 1.6
20/03:01pm 26.0 27.6 22.9 83 2.1 NE 19 28 10 15 1005.9 1002.3 1.6
20/03:00pm 25.8 27.1 22.3 81 2.4 NE 19 28 10 15 1005.9 1002.3 1.6
20/02:46pm 24.2 20.9 20.9 82 2.2 NNE 39 59 21 32 1006.3 1002.7 1.6
20/02:42pm 23.5 18.2 19.4 78 2.7 N 46 76 25 41 1006.4 1002.8 1.0
20/02:33pm 26.8 19.3 17.0 55 6.2 NNW 52 87 28 47 1006.3 1002.7 0.0
20/02:30pm 31.0 25.4 16.6 42 9.2 NW 41 76 22 41 1006.3 1002.7 0.0
20/02:27pm 31.5 27.3 16.3 40 9.7 NW 33 76 18 41 1005.8 1002.2 0.0
20/02:25pm 32.4 29.0 15.8 36 10.6 NW 28 61 15 33 1005.9 1002.3 0.0
20/02:00pm 37.1 36.0 14.4 26 14.4 NW 13 24 7 13 1006.1 1002.5 0.0
20/01:30pm 37.9 35.8 15.1 26 14.6 NW 20 35 11 19 1007.1 1003.6 0.0
20/01:00pm 36.3 34.7 15.9 29 13.2 NW 19 32 10 17 1008.0 1004.4 0.0
20/12:30pm 36.1 34.6 17.7 33 12.2 NNW 22 35 12 19 1008.4 1004.8 0.0
20/12:00pm 35.5 33.6 17.7 35 11.8 N 24 37 13 20 1008.9 1005.4 0.0
20/11:30am 34.6 33.1 17.8 37 11.1 N 22 32 12 17 1009.4 1005.9 0.0
20/11:00am 33.5 31.4 17.2 37 10.6 N 24 33 13 18 1010.0 1006.4 0.0
20/10:30am 32.2 31.2 18.8 45 8.9 N 22 30 12 16 1010.7 1007.2 0.0
20/10:00am 31.3 30.8 18.6 46 8.4 N 19 28 10 15 1011.0 1007.5 0.0
20/09:30am 30.4 29.9 19.1 50 7.5 NNE 20 28 11 15 1011.2 1007.7 0.0
20/09:00am 28.6 27.0 19.2 56 6.2 N 26 35 14 19 1011.6 1008.1 5.2
20/08:30am 28.0 26.3 19.8 61 5.4 N 28 39 15 21 1011.7 1008.2 5.2
20/08:00am 27.1 24.7 19.2 62 5.2 N 30 43 16 23 1011.6 1008.1 5.2
20/07:30am 25.9 23.7 18.8 65 4.6 NNE 28 41 15 22 1012.1 1008.5 5.2
20/07:00am 25.4 25.1 19.5 70 3.9 NNE 20 28 11 15 1012.2 1008.6 5.2
20/06:30am 24.1 24.3 20.2 79 2.6 NNE 19 26 10 14 1012.0 1008.4 5.2
20/06:00am 23.1 23.2 20.4 85 1.8 NNE 20 30 11 16 1011.6 1008.1 5.2

Other Formats:

Comma delimited format used in spreadsheet applications
http://www.bom.gov.au/fwo/IDW60801/IDW60801.95448.axf

JavaScript Object Notation format (JSON) in row-major order
http://www.bom.gov.au/fwo/IDW60801/IDW60801.95448.json